createdAt,value
2019-04-11T00:01:18.267Z,4.76
2019-04-11T00:03:51.435Z,4.69
2019-04-11T00:06:24.084Z,4.71
2019-04-11T00:08:56.727Z,4.72
2019-04-11T00:11:30.200Z,4.72
2019-04-11T00:14:03.241Z,4.72
2019-04-11T00:16:36.038Z,4.71
2019-04-11T00:19:09.419Z,4.68
2019-04-11T00:21:41.906Z,4.68
2019-04-11T00:24:14.509Z,4.68
2019-04-11T00:26:48.620Z,4.66
2019-04-11T00:29:21.148Z,4.68
2019-04-11T00:31:54.878Z,4.72
2019-04-11T00:34:27.506Z,4.67
2019-04-11T00:37:00.992Z,4.67
2019-04-11T00:39:33.539Z,4.70
2019-04-11T00:42:06.243Z,4.69
2019-04-11T00:44:38.961Z,4.68
2019-04-11T00:47:11.757Z,4.66
2019-04-11T00:49:44.296Z,4.63
2019-04-11T00:52:17.066Z,4.63
2019-04-11T00:54:49.626Z,4.59
2019-04-11T00:57:23.049Z,4.62
2019-04-11T00:59:56.473Z,4.64
2019-04-11T01:02:30.087Z,4.60
2019-04-11T01:05:03.557Z,4.64
2019-04-11T01:07:36.168Z,4.64
2019-04-11T01:10:09.801Z,4.63
2019-04-11T01:12:42.932Z,4.62
2019-04-11T01:15:17.522Z,4.64
2019-04-11T01:17:51.675Z,4.63
2019-04-11T01:20:24.256Z,4.63
2019-04-11T01:22:56.706Z,4.57
2019-04-11T01:25:29.237Z,4.56
2019-04-11T01:28:02.616Z,4.57
2019-04-11T01:30:40.909Z,4.54
2019-04-11T01:33:13.526Z,4.52
2019-04-11T01:35:46.006Z,4.53
2019-04-11T01:38:21.371Z,4.53
2019-04-11T01:40:54.062Z,4.53
2019-04-11T01:43:26.587Z,4.54
2019-04-11T01:46:00.061Z,4.55
2019-04-11T01:48:42.376Z,4.53
2019-04-11T01:51:15.791Z,4.53
2019-04-11T01:53:48.925Z,4.54
2019-04-11T01:56:23.202Z,4.50
2019-04-11T01:58:55.697Z,4.45
2019-04-11T02:01:36.916Z,4.44
2019-04-11T02:04:17.497Z,4.42
2019-04-11T02:06:50.009Z,4.40
2019-04-11T02:09:22.456Z,4.45
2019-04-11T02:11:56.080Z,4.46
2019-04-11T02:14:28.756Z,4.45
2019-04-11T02:17:01.311Z,4.44
2019-04-11T02:19:34.457Z,4.41
2019-04-11T02:22:24.432Z,4.38
2019-04-11T02:25:06.058Z,4.37
2019-04-11T02:27:40.203Z,4.45
2019-04-11T02:30:14.196Z,4.46
2019-04-11T02:32:47.971Z,4.45
2019-04-11T02:35:22.698Z,4.43
2019-04-11T02:37:57.026Z,4.45
2019-04-11T02:40:32.305Z,4.39
2019-04-11T02:43:05.529Z,4.37
2019-04-11T02:45:51.679Z,4.33
2019-04-11T02:48:13.823Z,4.34
2019-04-11T02:50:47.912Z,4.35
2019-04-11T02:53:21.250Z,4.35
2019-04-11T02:55:56.419Z,4.34
2019-04-11T02:58:30.261Z,4.38
2019-04-11T03:01:05.275Z,4.34
2019-04-11T03:03:37.849Z,4.31
2019-04-11T03:06:11.716Z,4.31
2019-04-11T03:08:44.552Z,4.31
2019-04-11T03:11:19.138Z,4.27
2019-04-11T03:13:54.834Z,4.31
2019-04-11T03:16:42.958Z,4.28
2019-04-11T03:19:18.384Z,4.30
2019-04-11T03:21:39.165Z,4.29
2019-04-11T03:24:11.053Z,4.26
2019-04-11T03:26:45.562Z,4.27
2019-04-11T03:29:19.762Z,4.26
2019-04-11T03:39:57.002Z,4.27
2019-04-11T03:42:28.523Z,4.28
2019-04-11T03:44:50.199Z,4.35
2019-04-11T03:47:31.861Z,4.30
2019-04-11T03:50:00.389Z,4.27
2019-04-11T03:52:28.419Z,4.25
2019-04-11T03:55:03.740Z,4.29
2019-04-11T03:57:36.930Z,4.27
2019-04-11T04:00:14.265Z,4.25
2019-04-11T04:02:46.754Z,4.27
2019-04-11T04:05:21.510Z,4.28
2019-04-11T04:07:55.290Z,4.24
2019-04-11T04:10:29.647Z,4.22
2019-04-11T04:13:03.324Z,4.17
2019-04-11T04:16:08.188Z,4.16
2019-04-11T04:18:49.426Z,4.23
2019-04-11T04:21:38.583Z,4.23
2019-04-11T04:24:32.223Z,4.24
2019-04-11T04:27:04.710Z,4.24
2019-04-11T04:29:38.121Z,4.25
2019-04-11T04:32:12.129Z,4.25
2019-04-11T04:34:46.368Z,4.25
2019-04-11T04:37:21.391Z,4.23
2019-04-11T04:40:13.497Z,4.29
2019-04-11T04:42:35.894Z,4.31
2019-04-11T04:45:04.853Z,4.29
2019-04-11T04:47:44.184Z,4.31
2019-04-11T04:50:13.423Z,4.29
2019-04-11T04:52:46.048Z,4.32
2019-04-11T04:55:19.497Z,4.35
2019-04-11T04:57:53.223Z,4.36
2019-04-11T05:00:28.047Z,4.38
2019-04-11T05:03:02.225Z,4.40
2019-04-11T05:05:35.777Z,4.43
2019-04-11T05:08:10.480Z,4.47
2019-04-11T05:10:43.163Z,4.49
2019-04-11T05:13:17.041Z,4.47
2019-04-11T05:16:03.815Z,4.45
2019-04-11T05:18:23.775Z,4.50
2019-04-11T05:20:57.010Z,4.54
2019-04-11T05:23:29.778Z,4.55
2019-04-11T05:26:03.509Z,4.58
2019-04-11T05:28:35.925Z,4.60
2019-04-11T05:31:08.516Z,4.62
2019-04-11T05:33:40.976Z,4.70
2019-04-11T05:36:14.364Z,4.76
2019-04-11T05:38:48.659Z,4.80
2019-04-11T05:41:23.049Z,4.82
2019-04-11T05:44:00.769Z,4.86
2019-04-11T05:46:35.302Z,4.93
2019-04-11T05:49:09.655Z,4.94
2019-04-11T05:51:47.072Z,5.00
2019-04-11T05:54:18.392Z,5.05
2019-04-11T05:56:59.149Z,5.09
2019-04-11T05:59:31.024Z,5.02
2019-04-11T06:02:10.998Z,5.02
2019-04-11T06:04:51.770Z,5.10
2019-04-11T06:07:43.571Z,5.22
2019-04-11T06:10:18.465Z,5.30
2019-04-11T06:13:05.797Z,5.36
2019-04-11T06:15:43.657Z,5.39
2019-04-11T06:18:33.063Z,5.42
2019-04-11T06:21:16.246Z,5.49
2019-04-11T06:24:14.203Z,5.55
2019-04-11T06:26:52.675Z,5.53
2019-04-11T06:29:53.009Z,5.52
2019-04-11T06:32:43.678Z,5.55
2019-04-11T06:35:35.856Z,5.60
2019-04-11T06:38:27.406Z,5.72
2019-04-11T06:41:12.495Z,5.77
2019-04-11T06:43:58.513Z,5.83
2019-04-11T06:47:02.653Z,5.93
2019-04-11T06:49:56.606Z,6.03
2019-04-11T06:52:29.206Z,6.10
2019-04-11T06:55:15.866Z,6.12
2019-04-11T06:57:49.794Z,6.17
2019-04-11T07:00:23.146Z,6.23
2019-04-11T07:02:59.279Z,6.29
2019-04-11T07:05:35.158Z,6.29
2019-04-11T07:08:07.799Z,6.18
2019-04-11T07:10:46.767Z,6.15
2019-04-11T07:13:24.862Z,6.16
2019-04-11T07:15:58.198Z,6.20
2019-04-11T07:18:39.970Z,6.26
2019-04-11T07:21:13.281Z,6.26
2019-04-11T07:24:03.360Z,6.19
2019-04-11T07:26:48.246Z,6.15
2019-04-11T07:29:54.805Z,6.17
2019-04-11T07:32:29.757Z,6.18
2019-04-11T07:35:19.696Z,6.09
2019-04-11T07:37:55.381Z,6.08
2019-04-11T07:40:45.457Z,6.15
2019-04-11T07:43:45.896Z,6.32
2019-04-11T07:46:47.305Z,6.47
2019-04-11T07:49:24.482Z,6.51
2019-04-11T07:52:00.321Z,6.57
2019-04-11T07:54:34.689Z,6.60
2019-04-11T07:57:17.731Z,6.63
2019-04-11T08:00:08.142Z,6.68
2019-04-11T08:03:04.176Z,6.76
2019-04-11T08:06:05.211Z,6.83
2019-04-11T08:08:47.722Z,7.09
2019-04-11T08:11:45.116Z,7.35
2019-04-11T08:14:45.615Z,7.66
2019-04-11T08:17:30.920Z,7.90
2019-04-11T08:20:13.213Z,8.13
2019-04-11T08:22:49.616Z,8.14
2019-04-11T08:25:57.795Z,8.24
2019-04-11T08:28:31.011Z,8.31
2019-04-11T08:31:28.778Z,8.24
2019-04-11T08:34:04.916Z,8.16
2019-04-11T08:36:55.407Z,8.24
2019-04-11T08:39:33.020Z,8.06
2019-04-11T08:42:31.714Z,7.96
2019-04-11T08:45:06.038Z,8.00
2019-04-11T08:50:28.896Z,8.08
2019-04-11T08:53:18.751Z,8.10
2019-04-11T08:56:00.502Z,8.29
2019-04-11T08:58:47.047Z,8.42
2019-04-11T09:01:20.345Z,8.58
2019-04-11T09:04:10.199Z,8.68
2019-04-11T09:06:42.914Z,8.80
2019-04-11T09:09:47.515Z,8.71
2019-04-11T09:12:20.567Z,8.85
2019-04-11T09:15:19.095Z,8.91
2019-04-11T09:18:05.727Z,9.03
2019-04-11T09:20:51.799Z,9.08
2019-04-11T09:23:25.929Z,9.23
2019-04-11T09:26:32.104Z,9.34
2019-04-11T09:29:05.991Z,9.41
2019-04-11T09:31:58.209Z,9.50
2019-04-11T09:34:35.680Z,9.55
2019-04-11T09:37:25.668Z,9.47
2019-04-11T09:40:23.936Z,9.38
2019-04-11T09:43:17.887Z,9.41
2019-04-11T09:46:08.187Z,9.47
2019-04-11T09:49:08.835Z,9.53
2019-04-11T09:52:08.903Z,9.54
2019-04-11T09:54:58.872Z,9.68
2019-04-11T09:57:37.035Z,9.83
2019-04-11T10:00:20.702Z,9.80
2019-04-11T10:02:58.656Z,10.00
2019-04-11T10:05:49.918Z,10.05
2019-04-11T10:08:57.602Z,10.05
2019-04-11T10:11:55.339Z,10.27
2019-04-11T10:14:29.656Z,10.44
2019-04-11T10:17:22.645Z,10.23
2019-04-11T10:19:56.959Z,10.07
2019-04-11T10:22:49.298Z,10.06
2019-04-11T10:25:31.975Z,10.32
2019-04-11T10:28:22.306Z,10.34
2019-04-11T10:31:14.797Z,10.00
2019-04-11T10:34:06.128Z,10.12
2019-04-11T10:36:43.238Z,10.43
2019-04-11T10:39:33.905Z,10.51
2019-04-11T10:42:10.430Z,10.60
2019-04-11T10:45:02.733Z,10.75
2019-04-11T10:47:36.626Z,10.78
2019-04-11T10:50:28.450Z,10.75
2019-04-11T10:53:03.069Z,10.93
2019-04-11T10:56:10.616Z,11.14
2019-04-11T10:58:46.268Z,11.29
2019-04-11T11:01:48.510Z,11.86
2019-04-11T11:04:30.516Z,11.98
2019-04-11T11:07:06.646Z,12.60
2019-04-11T11:09:54.573Z,12.68
2019-04-11T11:12:49.629Z,12.37
2019-04-11T11:15:41.898Z,12.19
2019-04-11T11:18:54.002Z,11.97
2019-04-11T11:21:09.458Z,11.79
2019-04-11T11:23:59.175Z,11.76
2019-04-11T11:26:36.136Z,11.62
2019-04-11T11:29:40.153Z,11.53
2019-04-11T11:32:33.659Z,11.41
2019-04-11T11:35:28.354Z,11.45
2019-04-11T11:38:09.636Z,11.68
2019-04-11T11:41:16.350Z,11.59
2019-04-11T11:43:50.166Z,11.62
2019-04-11T11:46:36.341Z,11.68
2019-04-11T11:49:42.351Z,11.63
2019-04-11T11:52:19.816Z,11.70
2019-04-11T11:54:55.637Z,11.77
2019-04-11T11:57:53.326Z,11.77
2019-04-11T12:00:30.145Z,11.93
2019-04-11T12:03:25.194Z,12.29
2019-04-11T12:06:00.794Z,13.57
2019-04-11T12:08:48.261Z,14.42
2019-04-11T12:11:22.004Z,14.94
2019-04-11T12:14:15.797Z,15.16
2019-04-11T12:17:06.774Z,14.69
2019-04-11T12:20:01.273Z,13.93
2019-04-11T12:22:28.872Z,13.39
2019-04-11T12:25:20.984Z,12.95
2019-04-11T12:28:14.940Z,12.92
2019-04-11T12:30:53.073Z,12.54
2019-04-11T12:33:57.708Z,12.46
2019-04-11T12:36:34.811Z,12.45
2019-04-11T12:39:24.339Z,12.57
2019-04-11T12:42:17.412Z,13.02
2019-04-11T12:45:07.128Z,14.36
2019-04-11T12:47:49.413Z,15.25
2019-04-11T12:50:42.198Z,15.29
2019-04-11T12:53:26.118Z,14.59
2019-04-11T12:56:23.370Z,14.02
2019-04-11T12:58:59.884Z,13.81
2019-04-11T13:01:51.281Z,13.80
2019-04-11T13:04:30.224Z,14.20
2019-04-11T13:07:21.595Z,13.87
2019-04-11T13:10:03.152Z,13.53
2019-04-11T13:13:06.815Z,13.35
2019-04-11T13:15:42.146Z,13.12
2019-04-11T13:18:27.558Z,13.22
2019-04-11T13:21:05.505Z,13.63
2019-04-11T13:24:11.931Z,14.34
2019-04-11T13:27:01.765Z,14.16
2019-04-11T13:29:59.265Z,13.56
2019-04-11T13:32:49.695Z,13.04
2019-04-11T13:35:41.436Z,12.70
2019-04-11T13:38:34.546Z,12.70
2019-04-11T13:41:15.136Z,12.68
2019-04-11T13:43:56.516Z,12.54
2019-04-11T13:46:47.777Z,12.67
2019-04-11T13:49:43.217Z,12.72
2019-04-11T13:52:34.799Z,12.66
2019-04-11T13:55:16.915Z,12.61
2019-04-11T13:58:08.291Z,12.43
2019-04-11T14:00:54.089Z,12.23
2019-04-11T14:03:48.739Z,12.07
2019-04-11T14:06:29.236Z,12.20
2019-04-11T14:09:20.745Z,12.17
2019-04-11T14:11:55.226Z,12.00
2019-04-11T14:14:51.861Z,12.03
2019-04-11T14:17:48.486Z,12.19
2019-04-11T14:20:30.785Z,12.38
2019-04-11T14:23:25.087Z,12.98
2019-04-11T14:26:36.346Z,13.50
2019-04-11T14:29:30.276Z,13.37
2019-04-11T14:32:24.227Z,12.80
2019-04-11T14:35:15.176Z,12.48
2019-04-11T14:37:51.215Z,12.24
2019-04-11T14:41:01.161Z,12.07
2019-04-11T14:43:38.085Z,11.88
2019-04-11T14:46:27.582Z,11.62
2019-04-11T14:49:05.774Z,11.59
2019-04-11T14:51:58.540Z,11.52
2019-04-11T14:54:51.444Z,11.29
2019-04-11T14:57:46.720Z,11.24
2019-04-11T15:00:27.869Z,11.10
2019-04-11T15:03:25.406Z,11.07
2019-04-11T15:06:02.365Z,11.02
2019-04-11T15:08:53.632Z,10.94
2019-04-11T15:11:49.186Z,10.93
2019-04-11T15:14:49.500Z,10.87
2019-04-11T15:17:45.465Z,10.70
2019-04-11T15:20:55.333Z,10.63
2019-04-11T15:23:47.734Z,10.49
2019-04-11T15:26:41.106Z,10.47
2019-04-11T15:29:38.569Z,10.59
2019-04-11T15:32:34.796Z,11.08
2019-04-11T15:35:10.783Z,11.04
2019-04-11T15:38:00.606Z,11.02
2019-04-11T15:40:39.115Z,11.02
2019-04-11T15:43:30.962Z,11.28
2019-04-11T15:46:07.556Z,11.39
2019-04-11T15:48:59.036Z,11.18
2019-04-11T15:51:46.326Z,11.04
2019-04-11T15:54:43.776Z,10.65
2019-04-11T15:57:43.009Z,10.43
2019-04-11T16:00:32.836Z,10.22
2019-04-11T16:03:10.086Z,10.03
2019-04-11T16:06:02.282Z,9.81
2019-04-11T16:08:43.265Z,9.73
2019-04-11T16:11:41.688Z,9.72
2019-04-11T16:14:48.100Z,9.66
2019-04-11T16:17:39.391Z,9.74
2019-04-11T16:20:18.140Z,9.89
2019-04-11T16:23:16.126Z,10.00
2019-04-11T16:25:53.720Z,10.00
2019-04-11T16:28:53.435Z,10.07
2019-04-11T16:31:30.803Z,10.03
2019-04-11T16:34:31.496Z,9.88
2019-04-11T16:37:06.125Z,9.73
2019-04-11T16:39:56.036Z,9.59
2019-04-11T16:42:35.116Z,9.49
2019-04-11T16:45:39.425Z,9.34
2019-04-11T16:48:11.996Z,9.26
2019-04-11T16:50:44.795Z,9.10
2019-04-11T16:53:17.256Z,8.99
2019-04-11T16:55:49.891Z,8.85
2019-04-11T16:58:22.486Z,8.80
2019-04-11T17:00:55.026Z,8.69
2019-04-11T17:03:27.509Z,8.54
2019-04-11T17:06:07.175Z,8.43
2019-04-11T17:08:51.622Z,8.32
2019-04-11T17:11:26.687Z,8.26
2019-04-11T17:13:58.840Z,8.18
2019-04-11T17:16:32.918Z,8.11
2019-04-11T17:19:06.277Z,8.05
2019-04-11T17:21:43.462Z,7.94
2019-04-11T17:24:16.726Z,7.85
2019-04-11T17:26:52.397Z,7.77
2019-04-11T17:29:24.928Z,7.69
2019-04-11T17:31:57.975Z,7.61
2019-04-11T17:34:32.324Z,7.53
2019-04-11T17:37:05.995Z,7.47
2019-04-11T17:39:38.754Z,7.39
2019-04-11T17:42:13.359Z,7.30
2019-04-11T17:44:46.419Z,7.27
2019-04-11T17:47:19.026Z,7.25
2019-04-11T17:49:54.595Z,7.20
2019-04-11T17:52:27.585Z,7.15
2019-04-11T17:55:00.884Z,7.10
2019-04-11T17:57:33.386Z,7.06
2019-04-11T18:00:08.495Z,6.99
2019-04-11T18:02:42.445Z,6.89
2019-04-11T18:05:17.109Z,6.83
2019-04-11T18:07:50.041Z,6.75
2019-04-11T18:10:25.581Z,6.67
2019-04-11T18:13:00.447Z,6.58
2019-04-11T18:15:32.350Z,6.48
2019-04-11T18:18:05.428Z,6.37
2019-04-11T18:20:39.705Z,6.29
2019-04-11T18:23:12.236Z,6.19
2019-04-11T18:25:45.146Z,6.12
2019-04-11T18:28:21.632Z,6.05
2019-04-11T18:30:54.109Z,5.98
2019-04-11T18:33:26.544Z,5.99
2019-04-11T18:36:01.899Z,5.92
2019-04-11T18:38:34.125Z,5.88
2019-04-11T18:41:07.017Z,5.84
2019-04-11T18:43:39.776Z,5.83
2019-04-11T18:46:12.416Z,5.84
2019-04-11T18:48:44.985Z,5.82
2019-04-11T18:51:17.486Z,5.75
2019-04-11T18:53:50.200Z,5.69
2019-04-11T18:56:22.687Z,5.61
2019-04-11T18:58:55.545Z,5.49
2019-04-11T19:01:28.235Z,5.42
2019-04-11T19:04:00.896Z,5.35
2019-04-11T19:06:33.563Z,5.30
2019-04-11T19:09:13.832Z,5.24
2019-04-11T19:11:46.395Z,5.19
2019-04-11T19:14:19.576Z,5.14
2019-04-11T19:16:51.995Z,5.06
2019-04-11T19:19:27.309Z,5.02
2019-04-11T19:21:58.735Z,4.93
2019-04-11T19:30:39.419Z,4.82
2019-04-11T19:33:10.428Z,4.83
2019-04-11T19:35:42.295Z,4.78
2019-04-11T19:38:28.401Z,4.79
2019-04-11T19:41:00.401Z,4.80
2019-04-11T19:43:32.538Z,4.80
2019-04-11T19:46:04.712Z,4.82
2019-04-11T19:48:37.129Z,4.83
2019-04-11T19:51:10.917Z,4.78
2019-04-11T19:53:43.220Z,4.82
2019-04-11T19:56:20.198Z,4.85
2019-04-11T19:58:52.999Z,4.87
2019-04-11T20:01:25.040Z,4.87
2019-04-11T20:03:57.119Z,4.89
2019-04-11T20:06:29.180Z,4.91
2019-04-11T20:09:01.222Z,4.89
2019-04-11T20:11:34.930Z,4.92
2019-04-11T20:14:07.973Z,4.92
2019-04-11T20:16:42.029Z,4.95
2019-04-11T20:19:13.980Z,4.97
2019-04-11T20:21:45.980Z,4.92
2019-04-11T20:24:18.000Z,4.92
2019-04-11T20:26:50.354Z,4.91
2019-04-11T20:29:22.580Z,4.88
2019-04-11T20:31:54.670Z,4.88
2019-04-11T20:34:28.020Z,4.88
2019-04-11T20:37:00.210Z,4.89
2019-04-11T20:39:32.171Z,4.85
2019-04-11T20:42:04.740Z,4.79
2019-04-11T20:44:35.713Z,4.78
2019-04-11T20:47:07.870Z,4.74
2019-04-11T20:49:48.627Z,4.70
2019-04-11T20:52:20.708Z,4.71
2019-04-11T20:54:51.798Z,4.69
2019-04-11T20:57:25.852Z,4.64
2019-04-11T20:59:57.420Z,4.66
2019-04-11T21:02:30.392Z,4.63
2019-04-11T21:05:02.502Z,4.64
2019-04-11T21:07:34.990Z,4.64
2019-04-11T21:10:07.136Z,4.64
2019-04-11T21:12:39.660Z,4.64
2019-04-11T21:15:11.788Z,4.63
2019-04-11T21:17:43.758Z,4.60
2019-04-11T21:20:16.033Z,4.61
2019-04-11T21:22:49.519Z,4.58
2019-04-11T21:25:21.415Z,4.57
2019-04-11T21:27:53.477Z,4.59
2019-04-11T21:30:25.391Z,4.57
2019-04-11T21:32:57.385Z,4.56
2019-04-11T21:35:30.971Z,4.51
2019-04-11T21:38:03.217Z,4.51
2019-04-11T21:40:35.963Z,4.49
2019-04-11T21:43:08.448Z,4.44
2019-04-11T21:45:41.498Z,4.37
2019-04-11T21:48:13.549Z,4.31
2019-04-11T21:50:45.488Z,4.23
2019-04-11T21:53:17.528Z,4.21
2019-04-11T21:55:49.467Z,4.14
2019-04-11T21:58:21.498Z,4.13
2019-04-11T22:01:00.132Z,4.11
2019-04-11T22:03:32.518Z,4.10
2019-04-11T22:06:04.778Z,4.06
2019-04-11T22:08:35.806Z,4.10
2019-04-11T22:11:09.917Z,4.08
2019-04-11T22:13:41.697Z,4.07
2019-04-11T22:16:14.409Z,4.05
2019-04-11T22:18:46.432Z,4.07
2019-04-11T22:21:18.547Z,4.04
2019-04-11T22:23:50.538Z,4.00
2019-04-11T22:26:22.479Z,3.99
2019-04-11T22:28:55.218Z,3.96
2019-04-11T22:31:27.770Z,4.01
2019-04-11T22:34:10.448Z,4.02
2019-04-11T22:36:42.558Z,4.00
2019-04-11T22:39:14.668Z,3.97
2019-04-11T22:41:45.616Z,3.94
2019-04-11T22:44:17.337Z,3.90
2019-04-11T22:46:49.338Z,3.89
2019-04-11T22:49:21.768Z,3.88
2019-04-11T22:51:53.813Z,3.88
2019-04-11T22:54:26.003Z,3.86
2019-04-11T22:56:58.047Z,3.84
2019-04-11T22:59:30.238Z,3.85
2019-04-11T23:02:31.877Z,3.85
2019-04-11T23:05:03.687Z,3.82
2019-04-11T23:07:35.677Z,3.80
2019-04-11T23:12:46.638Z,3.83
2019-04-11T23:15:17.646Z,3.82
2019-04-11T23:17:49.467Z,3.75
2019-04-11T23:20:21.447Z,3.71
2019-04-11T23:22:53.680Z,3.71
2019-04-11T23:25:25.821Z,3.66
2019-04-11T23:27:57.810Z,3.65
2019-04-11T23:30:29.860Z,3.65
2019-04-11T23:33:01.970Z,3.65
2019-04-11T23:35:33.872Z,3.63
2019-04-11T23:38:05.879Z,3.62
2019-04-11T23:40:37.909Z,3.63
2019-04-11T23:43:09.942Z,3.63
2019-04-11T23:45:42.090Z,3.60
2019-04-11T23:48:17.819Z,3.61
2019-04-11T23:50:49.900Z,3.62
2019-04-11T23:53:22.039Z,3.60
2019-04-11T23:55:54.270Z,3.57
2019-04-11T23:58:25.309Z,3.56
